Latest Weather Observations for Bulman

IDD60801

Issued at 10:31 am CST Thursday 2 April 2015 (issued every 30 minutes, with the page automatically refreshed every 10 minutes)

About weather observations | Map of weather stations | Latest weather observations for NT | Other Formats
Station Details ID: 014627 Name: BULMAN Lat: -13.67 Lon: 134.34 Height: 103.4 m
Data from the previous 72 hours. | See also: Recent months for locations in Northern Territory
Date/Time
CST
Temp
°C
App
Temp
°C
Dew
Point
Rel
Hum
%
Delta-T
°C
Wind Press
QNH
hPa
Press
MSL
hPa
Rain
since 9 am
mm
Dir
 
Spd
km/h
Gust
km/h
Spd
kts
Gust
kts
02/10:30am 31.9 35.8 22.9 59 6.2 NNE 7 11 4 6 1011.2 1010.5 0.0
02/10:00am 31.2 35.9 23.3 63 5.5 NE 4 9 2 5 1011.3 1010.6 0.0
02/09:30am 30.3 34.7 23.5 67 4.7 NE 6 11 3 6 1011.5 1010.8 0.0
02/09:00am 29.3 34.2 24.4 75 3.4 ENE 6 9 3 5 1011.5 1010.8 0.0
02/08:30am 27.8 33.4 23.6 78 2.9 CALM 0 0 0 0 1011.2 1010.5 0.0
02/08:00am 26.0 31.8 23.9 88 1.4 CALM 0 0 0 0 1011.1 1010.4 0.0
02/07:30am 24.3 30.2 24.1 99 0.1 CALM 0 0 0 0 1010.8 1010.1 0.0
02/07:00am 23.0 28.0 22.5 97 0.3 CALM 0 0 0 0 1010.3 1009.6 0.0
02/06:30am 22.8 27.6 22.1 96 0.5 CALM 0 0 0 0 1010.0 1009.3 0.0
02/06:00am 22.9 27.7 22.2 96 0.5 CALM 0 0 0 0 1009.9 1009.2 0.0
02/05:30am 23.2 28.1 22.4 95 0.5 CALM 0 0 0 0 1009.7 1009.0 0.0
02/05:00am 23.2 28.2 22.5 96 0.5 CALM 0 0 0 0 1009.4 1008.7 0.0
02/04:30am 23.3 28.4 22.6 96 0.5 CALM 0 0 0 0 1009.2 1008.5 0.0
02/04:00am 23.5 28.7 22.8 96 0.5 CALM 0 0 0 0 1009.3 1008.6 0.0
02/03:30am 23.5 28.6 22.7 95 0.5 CALM 0 0 0 0 1009.4 1008.7 0.0
02/03:00am 23.8 29.0 22.9 95 0.6 CALM 0 0 0 0 1009.3 1008.6 0.0
02/02:30am 23.9 29.2 23.0 95 0.6 CALM 0 0 0 0 1009.7 1009.0 0.0
02/02:00am 24.0 29.3 23.1 95 0.6 CALM 0 0 0 0 1010.0 1009.3 0.0
02/01:30am 24.2 29.6 23.3 95 0.6 CALM 0 0 0 0 1010.4 1009.7 0.0
02/01:00am 24.5 29.7 23.5 94 0.7 N 2 7 1 4 1010.8 1010.1 0.0
02/12:30am 24.7 30.3 23.5 93 0.8 CALM 0 2 0 1 1011.5 1010.8 0.0
02/12:00am 24.9 30.5 23.5 92 1.0 CALM 0 6 0 3 1011.7 1011.0 0.0
 
Date/Time
CST
Temp
°C
App
Temp
°C
Dew
Point
Rel
Hum
%
Delta-T
°C
Wind Press
QNH
hPa
Press
MSL
hPa
Rain
since 9 am
mm
Dir
 
Spd
km/h
Gust
km/h
Spd
kts
Gust
kts
01/11:30pm 25.0 29.4 23.4 91 1.1 NNW 6 7 3 4 1011.8 1011.1 0.0
01/11:00pm 25.3 30.9 23.5 90 1.2 CALM 0 0 0 0 1011.5 1010.8 0.0
01/10:30pm 25.7 31.2 23.4 87 1.6 CALM 0 0 0 0 1011.4 1010.7 0.0
01/10:00pm 26.3 31.8 23.4 84 2.0 CALM 0 6 0 3 1011.3 1010.6 0.0
01/09:30pm 27.0 31.0 22.8 78 2.9 NNW 6 9 3 5 1011.3 1010.6 0.0
01/09:00pm 27.6 31.5 23.0 76 3.1 N 7 15 4 8 1011.0 1010.3 0.0
01/08:30pm 28.1 32.2 23.2 74 3.4 N 7 13 4 7 1010.7 1010.0 0.0
01/08:00pm 28.8 32.0 23.0 71 4.0 N 11 19 6 10 1010.2 1009.5 0.0
01/07:30pm 29.0 34.3 23.7 73 3.7 N 2 6 1 3 1009.6 1008.9 0.0
01/07:00pm 29.6 33.9 23.3 69 4.3 ESE 6 9 3 5 1009.4 1008.7 0.0
01/06:30pm 30.7 36.0 23.1 64 5.2 CALM 0 0 0 0 1009.1 1008.4 0.0
01/06:00pm 32.9 36.9 22.7 55 7.0 SE 6 7 3 4 1008.7 1008.0 0.0
01/05:30pm 33.2 36.1 21.0 48 8.2 E 7 11 4 6 1008.5 1007.8 0.0
01/05:00pm 34.0 36.3 20.7 45 9.0 ESE 9 15 5 8 1008.5 1007.8 0.0
01/04:30pm 34.4 36.9 21.1 45 9.0 SE 9 15 5 8 1008.5 1007.8 0.0
01/04:00pm 34.7 37.2 21.0 44 9.3 ESE 9 15 5 8 1008.7 1008.0 0.0
01/03:30pm 35.1 37.6 21.0 43 9.6 E 9 13 5 7 1008.8 1008.1 0.0
01/03:00pm 34.5 37.1 20.5 44 9.4 E 7 13 4 7 1009.1 1008.4 0.0
01/02:30pm 34.5 37.3 21.5 46 8.9 ENE 9 17 5 9 1009.5 1008.8 0.0
01/02:00pm 33.9 36.2 20.6 45 8.9 E 9 15 5 8 1009.9 1009.2 0.0
01/01:30pm 33.8 36.2 20.9 46 8.7 SE 9 15 5 8 1010.3 1009.6 0.0
01/01:00pm 33.7 36.5 21.5 49 8.3 NNE 9 19 5 10 1010.9 1010.2 0.0
01/12:30pm 33.4 35.6 20.5 46 8.7 ESE 9 19 5 10 1011.3 1010.6 0.0
01/12:00pm 32.6 34.8 20.5 49 8.1 ESE 9 17 5 9 1011.8 1011.1 0.0
01/11:30am 32.5 35.0 21.0 50 7.7 ENE 9 15 5 8 1012.4 1011.8 0.0
01/11:00am 31.7 33.9 20.3 50 7.6 ENE 9 15 5 8 1013.0 1012.4 0.0
01/10:30am 31.2 34.2 20.8 54 7.0 ENE 6 11 3 6 1013.4 1012.8 0.0
01/10:00am 31.0 33.5 20.3 53 7.1 NE 7 11 4 6 1013.5 1012.9 0.0
01/09:30am 30.4 35.7 24.3 70 4.3 N 4 7 2 4 1013.6 1013.0 0.0
01/09:00am 29.2 34.6 23.9 73 3.7 NNE 2 7 1 4 1013.6 1012.9 0.0
01/08:30am 27.4 32.5 24.0 82 2.4 ESE 4 7 2 4 1013.5 1012.8 0.0
01/08:00am 25.8 32.0 24.6 93 0.8 CALM 0 0 0 0 1013.2 1012.5 0.0
01/07:30am 23.7 29.2 23.4 98 0.2 CALM 0 0 0 0 1012.8 1012.1 0.0
01/07:00am 22.9 28.0 22.6 98 0.2 CALM 0 4 0 2 1012.5 1011.8 0.0
01/06:30am 22.6 26.9 21.9 96 0.5 ESE 2 7 1 4 1012.3 1011.6 0.0
01/06:00am 22.5 27.2 22.0 97 0.3 CALM 0 0 0 0 1011.8 1011.1 0.0
01/05:30am 22.7 27.5 22.2 97 0.3 CALM 0 0 0 0 1011.4 1010.7 0.0
01/05:00am 22.7 27.4 22.0 96 0.5 CALM 0 0 0 0 1011.1 1010.4 0.0
01/04:30am 22.9 27.7 22.2 96 0.5 CALM 0 0 0 0 1010.9 1010.2 0.0
01/04:00am 23.0 27.9 22.3 96 0.5 CALM 0 0 0 0 1011.0 1010.3 0.0
01/03:30am 23.2 28.2 22.5 96 0.5 CALM 0 0 0 0 1011.0 1010.3 0.0
01/03:00am 23.5 28.6 22.7 95 0.5 CALM 0 0 0 0 1011.2 1010.5 0.0
01/02:30am 23.8 29.1 23.1 96 0.5 CALM 0 0 0 0 1011.4 1010.7 0.0
01/02:00am 23.9 29.2 23.0 95 0.6 CALM 0 0 0 0 1011.6 1010.9 0.0
01/01:30am 24.0 28.3 23.3 96 0.5 SW 6 7 3 4 1012.0 1011.3 0.0
01/01:00am 24.0 29.3 23.0 94 0.7 CALM 0 0 0 0 1012.4 1011.7 0.0
01/12:30am 24.2 29.5 23.0 93 0.8 CALM 0 0 0 0 1012.6 1011.9 0.0
01/12:00am 24.6 28.7 23.2 92 1.0 SW 7 9 4 5 1012.6 1011.9 0.0
 
Date/Time
CST
Temp
°C
App
Temp
°C
Dew
Point
Rel
Hum
%
Delta-T
°C
Wind Press
QNH
hPa
Press
MSL
hPa
Rain
since 9 am
mm
Dir
 
Spd
km/h
Gust
km/h
Spd
kts
Gust
kts
31/11:30pm 24.4 29.6 22.8 91 1.1 CALM 0 0 0 0 1012.8 1012.1 0.0
31/11:00pm 24.8 30.0 22.9 89 1.3 CALM 0 0 0 0 1013.0 1012.3 0.0
31/10:30pm 25.2 30.2 22.5 85 1.8 CALM 0 0 0 0 1013.0 1012.3 0.0
31/10:00pm 25.9 30.1 22.4 81 2.4 SE 4 6 2 3 1013.0 1012.3 0.0
31/09:30pm 26.6 30.0 22.0 76 3.1 SE 7 9 4 5 1012.8 1012.1 0.0
31/09:00pm 27.0 30.4 22.0 74 3.4 SE 7 9 4 5 1012.7 1012.0 0.0
31/08:30pm 27.5 30.9 22.0 72 3.7 SE 7 9 4 5 1012.4 1011.7 0.0
31/08:00pm 28.0 31.5 21.8 69 4.2 ESE 6 7 3 4 1012.1 1011.4 0.0
31/07:30pm 28.2 31.6 21.7 68 4.4 SE 6 11 3 6 1011.7 1011.0 0.0
31/07:00pm 28.7 29.4 21.5 65 4.8 ESE 20 35 11 19 1012.0 1011.3 0.0
31/06:48pm 30.0 30.5 20.8 57 6.1 ESE 19 46 10 25 1011.7 1011.0 0.0
31/06:30pm 31.4 34.3 21.0 54 7.0 E 7 11 4 6 1011.0 1010.3 0.0
31/06:00pm 32.4 34.2 19.6 46 8.5 E 9 15 5 8 1010.9 1010.2 0.0
31/05:30pm 33.4 35.8 20.9 48 8.4 ENE 9 17 5 9 1010.6 1009.9 0.0
31/05:00pm 33.9 36.0 21.0 47 8.7 NE 11 17 6 9 1010.3 1009.6 0.0
31/04:30pm 33.9 35.7 20.3 45 9.1 ENE 11 17 6 9 1010.2 1009.5 0.0
31/04:00pm 34.4 36.4 20.7 44 9.2 ENE 11 17 6 9 1010.2 1009.5 0.0
31/03:30pm 34.3 36.3 19.9 42 9.6 E 9 17 5 9 1010.3 1009.6 0.0
31/03:00pm 34.4 36.6 21.1 45 9.0 E 11 20 6 11 1010.4 1009.7 0.0
31/02:30pm 33.2 34.1 20.0 45 8.8 ESE 15 20 8 11 1010.7 1010.0 0.0
31/02:00pm 33.8 35.5 20.2 44 9.1 ENE 11 20 6 11 1011.1 1010.4 0.0
31/01:30pm 33.8 35.3 21.2 47 8.5 E 15 22 8 12 1011.5 1010.8 0.0
31/01:00pm 34.3 38.0 23.9 54 7.3 E 11 20 6 11 1012.1 1011.4 0.0
31/12:30pm 33.3 36.1 21.5 50 8.0 ENE 9 19 5 10 1012.6 1011.9 0.0
31/12:00pm 32.3 34.7 21.5 53 7.3 E 11 19 6 10 1013.1 1012.4 0.0
31/11:30am 32.3 35.3 22.7 57 6.6 ESE 11 19 6 10 1013.5 1012.8 0.0
31/11:00am 31.7 34.9 22.4 58 6.4 ENE 9 17 5 9 1014.0 1013.3 0.0
31/10:30am 31.3 35.2 22.9 61 5.8 ENE 7 17 4 9 1014.3 1013.6 0.0
31/10:00am 30.4 34.0 23.1 65 5.0 ESE 9 13 5 7 1014.6 1013.9 0.0
31/09:30am 28.9 33.3 23.8 74 3.5 E 7 11 4 6 1014.7 1014.0 0.0
31/09:00am 28.1 33.2 24.7 82 2.4 NNE 6 9 3 5 1014.5 1013.8 0.6
31/08:30am 25.9 32.3 24.9 94 0.7 CALM 0 0 0 0 1014.5 1013.8 0.6
31/08:00am 24.4 30.2 23.9 97 0.3 CALM 0 0 0 0 1014.4 1013.7 0.6
31/07:30am 22.6 27.5 22.3 98 0.2 CALM 0 0 0 0 1014.0 1013.3 0.6
31/07:00am 22.0 26.6 21.7 98 0.2 CALM 0 0 0 0 1013.7 1013.0 0.6
31/06:30am 22.0 26.4 21.3 96 0.5 CALM 0 0 0 0 1013.3 1012.6 0.6
31/06:00am 22.3 26.8 21.6 96 0.5 CALM 0 0 0 0 1013.0 1012.3 0.6
31/05:30am 22.6 27.4 22.1 97 0.3 CALM 0 0 0 0 1012.7 1012.0 0.6
31/05:00am 22.8 27.6 22.1 96 0.5 CALM 0 0 0 0 1012.5 1011.8 0.6
31/04:30am 23.1 28.0 22.4 96 0.5 CALM 0 0 0 0 1012.4 1011.7 0.6
31/04:00am 23.4 28.5 22.7 96 0.5 CALM 0 0 0 0 1012.6 1011.9 0.6
31/03:30am 23.8 29.1 23.1 96 0.5 CALM 0 0 0 0 1012.6 1011.9 0.6
31/03:00am 24.0 29.4 23.3 96 0.5 CALM 0 0 0 0 1012.7 1012.0 0.6
31/02:30am 24.1 29.6 23.4 96 0.5 CALM 0 0 0 0 1012.7 1012.0 0.6
31/02:00am 24.1 29.5 23.2 95 0.6 CALM 0 0 0 0 1012.9 1012.2 0.6
31/01:30am 24.4 30.0 23.5 95 0.6 CALM 0 0 0 0 1013.1 1012.4 0.6
31/01:00am 24.3 29.8 23.4 95 0.6 CALM 0 0 0 0 1013.5 1012.8 0.6
31/12:30am 24.6 30.2 23.6 94 0.7 CALM 0 0 0 0 1013.9 1013.2 0.6
31/12:00am 24.7 30.3 23.5 93 0.8 CALM 0 0 0 0 1014.1 1013.4 0.6
 
Date/Time
CST
Temp
°C
App
Temp
°C
Dew
Point
Rel
Hum
%
Delta-T
°C
Wind Press
QNH
hPa
Press
MSL
hPa
Rain
since 9 am
mm
Dir
 
Spd
km/h
Gust
km/h
Spd
kts
Gust
kts
30/11:30pm 25.0 30.2 23.6 92 1.0 SE 2 7 1 4 1014.3 1013.6 0.6
30/11:00pm 25.4 29.9 23.6 90 1.2 SE 6 6 3 3 1014.4 1013.7 0.6
30/10:30pm 25.7 30.4 23.9 90 1.2 SE 6 7 3 4 1014.3 1013.6 0.6
30/10:00pm 26.0 30.5 23.7 87 1.6 SSE 6 7 3 4 1014.2 1013.5 0.6
30/09:30pm 26.4 30.6 23.5 84 2.0 SSE 7 9 4 5 1014.0 1013.3 0.6
30/09:00pm 26.6 31.4 24.1 86 1.7 SSE 6 9 3 5 1013.8 1013.1 0.6
30/08:30pm 26.6 31.4 24.1 86 1.7 SE 6 9 3 5 1013.6 1012.9 0.6
30/08:00pm 27.6 32.0 23.8 80 2.6 SE 7 9 4 5 1013.2 1012.5 0.6
30/07:30pm 27.1 33.4 24.7 87 1.7 CALM 0 0 0 0 1012.9 1012.2 0.6
30/07:00pm 26.8 32.4 24.8 89 1.4 S 4 9 2 5 1012.5 1011.8 0.6
30/06:30pm 27.9 33.2 24.3 81 2.5 N 4 9 2 5 1012.3 1011.6 0.6
30/06:00pm 32.4 35.1 21.3 52 7.5 ESE 9 19 5 10 1011.9 1011.2 0.0
30/05:30pm 32.8 34.8 20.7 49 8.1 SE 11 17 6 9 1011.6 1010.9 0.0
30/05:00pm 33.3 34.2 20.1 45 8.8 ENE 15 20 8 11 1011.4 1010.7 0.0
30/04:30pm 33.5 33.8 19.6 44 9.2 E 17 28 9 15 1011.4 1010.7 0.0
30/04:00pm 33.3 33.7 19.0 42 9.4 ESE 15 24 8 13 1011.3 1010.6 0.0
30/03:30pm 33.9 34.0 18.4 40 10.1 ESE 15 28 8 15 1011.3 1010.6 0.0
30/03:00pm 34.1 35.7 20.8 45 9.0 ESE 13 20 7 11 1011.5 1010.8 0.0
30/02:30pm 33.7 35.3 21.5 49 8.3 ESE 15 24 8 13 1011.7 1011.0 0.0
30/02:00pm 34.2 37.0 22.3 50 8.2 ENE 11 20 6 11 1012.1 1011.4 0.0
30/01:30pm 33.4 35.9 23.1 54 7.1 E 15 26 8 14 1012.4 1011.7 0.0
30/01:00pm 32.5 33.7 20.7 49 7.9 ESE 15 28 8 15 1012.7 1012.0 0.0
30/12:30pm 32.4 33.5 21.3 52 7.5 NE 17 28 9 15 1013.2 1012.5 0.0
30/12:00pm 31.9 34.1 22.6 58 6.4 E 15 24 8 13 1013.7 1013.0 0.0
30/11:30am 31.9 33.3 21.1 52 7.3 E 15 20 8 11 1014.2 1013.5 0.0
30/11:00am 31.9 34.0 21.7 54 6.9 NE 13 26 7 14 1014.6 1013.9 0.0

Other Formats:

Comma delimited format used in spreadsheet applications
http://www.bom.gov.au/fwo/IDD60801/IDD60801.94143.axf

JavaScript Object Notation format (JSON) in row-major order
http://www.bom.gov.au/fwo/IDD60801/IDD60801.94143.json